Time;durP1;ratioP1;P1;durP2;ratioP2;P2;SDS_P1;SDS_P2;PMS_P1;PMS_P2;Temp;Humidity;BMP_temperature;BMP_pressure;BME280_temperature;BME280_humidity;BME280_pressure;Samples;Min_cycle;Max_cycle;Signal;HPM_P1;HPM_P2
2022/03/27 00:01:44;;;;;;;13.70;7.35;;;;;;;11.91;44.76;100873.38;5011726;28;20225;-77
2022/03/27 00:04:11;;;;;;;14.02;7.30;;;;;;;11.71;44.87;100848.69;5011587;28;20645;-76
2022/03/27 00:06:38;;;;;;;15.82;7.60;;;;;;;11.97;44.99;100898.63;5011702;28;20568;-76
2022/03/27 00:09:06;;;;;;;14.63;7.50;;;;;;;11.80;45.18;100876.59;5011740;28;20200;-76
2022/03/27 00:11:34;;;;;;;15.20;7.85;;;;;;;11.93;45.25;100896.81;5011450;28;20197;-76
2022/03/27 00:14:02;;;;;;;12.20;7.25;;;;;;;11.91;45.26;100895.91;5011576;28;20205;-76
2022/03/27 00:16:29;;;;;;;9.88;5.80;;;;;;;11.68;45.58;100858.97;5011457;28;20759;-76
2022/03/27 00:18:56;;;;;;;14.43;8.20;;;;;;;11.74;45.76;100889.44;5011674;28;20216;-76
2022/03/27 00:21:24;;;;;;;11.50;7.97;;;;;;;11.80;45.85;100884.41;5011626;28;20216;-77
2022/03/27 00:23:52;;;;;;;16.65;8.15;;;;;;;11.53;46.22;100858.59;5009102;28;20228;-77
2022/03/27 00:26:21;;;;;;;13.63;7.13;;;;;;;11.81;45.99;100881.81;5011320;28;20209;-76
2022/03/27 00:28:48;;;;;;;11.20;5.13;;;;;;;11.74;46.13;100879.03;5011178;28;20641;-74
2022/03/27 00:31:15;;;;;;;12.13;7.07;;;;;;;11.59;45.90;100852.69;5017851;28;20201;-76
2022/03/27 00:33:44;;;;;;;28.92;6.80;;;;;;;11.81;45.85;100875.72;5031029;28;20208;-74
2022/03/27 00:36:13;;;;;;;13.75;8.25;;;;;;;11.86;46.18;100868.94;5031222;28;20550;-76
2022/03/27 00:38:41;;;;;;;14.85;7.95;;;;;;;11.83;45.90;100874.06;5030807;28;20204;-74
2022/03/27 00:41:08;;;;;;;15.60;8.05;;;;;;;11.77;46.34;100874.78;5030846;28;20576;-74
2022/03/27 00:43:37;;;;;;;15.20;9.13;;;;;;;11.72;46.28;100870.34;5031264;28;20306;-75
2022/03/27 00:46:04;;;;;;;17.63;7.95;;;;;;;11.84;46.14;100866.28;5034979;28;20208;-76
2022/03/27 00:48:31;;;;;;;11.57;7.70;;;;;;;11.90;45.80;100865.56;5034303;28;20620;-77
2022/03/27 00:50:58;;;;;;;19.00;8.07;;;;;;;11.90;45.89;100856.06;5034574;28;20200;-76
2022/03/27 00:53:25;;;;;;;13.20;4.90;;;;;;;11.91;46.31;100870.78;5034508;28;20200;-76
2022/03/27 00:55:52;;;;;;;12.45;7.90;;;;;;;11.78;46.18;100867.88;5034961;28;20227;-75
2022/03/27 00:58:19;;;;;;;10.27;6.50;;;;;;;11.78;46.50;100866.16;5034561;28;20711;-75
2022/03/27 01:00:56;;;;;;;12.65;7.97;;;;;;;11.75;46.50;100857.41;5034207;28;20567;-77
2022/03/27 01:03:25;;;;;;;6.93;5.30;;;;;;;11.68;46.81;100868.47;5031660;28;20306;-74
2022/03/27 01:05:52;;;;;;;16.58;6.90;;;;;;;11.63;46.76;100859.72;5033337;28;20576;-74
2022/03/27 01:11:11;;;;;;;15.52;7.55;;;;;;;11.74;46.13;100858.25;5033883;28;20211;-75
2022/03/27 01:13:42;;;;;;;3.75;3.38;;;;;;;11.86;46.48;100861.13;5032043;28;20200;-75
2022/03/27 01:16:17;;;;;;;8.88;6.53;;;;;;;11.82;46.16;100856.72;5034562;28;20214;-75
2022/03/27 01:18:43;;;;;;;21.83;5.75;;;;;;;11.86;46.34;100848.16;5034112;28;20207;-73
2022/03/27 01:21:12;;;;;;;8.60;5.30;;;;;;;11.85;46.40;100851.59;4999134;28;20203;-75
2022/03/27 01:23:39;;;;;;;12.23;5.95;;;;;;;11.61;46.27;100819.84;5034416;28;20230;-76
2022/03/27 01:26:06;;;;;;;9.05;5.35;;;;;;;11.93;46.19;100850.03;5033992;28;20238;-74
2022/03/27 01:28:33;;;;;;;9.43;4.88;;;;;;;11.75;46.18;100827.13;5032106;28;20288;-74
2022/03/27 01:31:00;;;;;;;15.88;6.25;;;;;;;11.84;46.33;100831.66;5034274;28;20208;-77
2022/03/27 01:33:27;;;;;;;10.95;5.03;;;;;;;11.90;46.36;100843.06;5034334;28;20298;-77
2022/03/27 01:35:54;;;;;;;12.32;6.22;;;;;;;11.81;46.47;100834.16;5015612;28;20609;-76
2022/03/27 01:38:22;;;;;;;9.05;5.80;;;;;;;11.91;46.04;100851.75;5024249;28;20255;-77
2022/03/27 01:40:49;;;;;;;12.13;6.47;;;;;;;12.03;46.07;100851.09;5013845;28;20209;-76
2022/03/27 01:43:15;;;;;;;10.80;5.65;;;;;;;12.02;46.04;100860.63;5014488;28;20636;-76
2022/03/27 01:45:42;;;;;;;13.07;6.18;;;;;;;12.15;46.07;100857.44;5013505;28;20593;-76
2022/03/27 01:48:09;;;;;;;10.60;6.43;;;;;;;11.99;46.29;100842.38;5014086;28;20262;-77
2022/03/27 01:50:36;;;;;;;12.55;6.10;;;;;;;11.92;46.29;100832.69;5014350;28;20201;-76
2022/03/27 01:53:03;;;;;;;8.35;6.75;;;;;;;11.96;46.09;100850.09;5014037;28;20634;-74
2022/03/27 01:55:31;;;;;;;7.32;4.20;;;;;;;11.91;46.59;100839.59;5013584;28;20193;-75
2022/03/27 01:57:58;;;;;;;9.80;6.00;;;;;;;11.82;46.45;100835.94;5013693;28;20251;-74
2022/03/27 02:00:25;;;;;;;7.57;4.53;;;;;;;11.96;46.66;100838.81;5013771;28;20899;-74
2022/03/27 02:02:52;;;;;;;5.30;4.55;;;;;;;11.86;46.79;100833.44;5013419;28;20232;-75
2022/03/27 02:05:19;;;;;;;10.00;4.63;;;;;;;11.90;46.85;100836.97;5011648;28;20232;-75
2022/03/27 02:07:46;;;;;;;11.45;5.97;;;;;;;11.84;46.74;100831.66;5013272;28;20200;-77
2022/03/27 02:10:13;;;;;;;7.68;4.85;;;;;;;12.03;46.59;100840.72;5013088;28;20205;-74
2022/03/27 02:12:41;;;;;;;14.90;6.18;;;;;;;12.07;46.59;100838.22;5012882;28;20658;-74
2022/03/27 02:15:10;;;;;;;7.85;5.32;;;;;;;12.09;46.48;100840.84;5024786;28;20750;-74
2022/03/27 02:17:39;;;;;;;7.43;4.97;;;;;;;12.02;46.65;100829.44;5033402;28;20208;-74
2022/03/27 02:20:08;;;;;;;7.68;5.88;;;;;;;12.05;46.61;100839.91;5033426;28;20350;-76
2022/03/27 02:22:35;;;;;;;7.13;3.63;;;;;;;12.06;46.69;100843.38;5032362;28;20204;-76
2022/03/27 02:25:01;;;;;;;7.28;4.03;;;;;;;12.04;46.47;100835.56;5032366;28;20236;-76
2022/03/27 02:27:28;;;;;;;13.35;5.43;;;;;;;12.04;46.66;100830.34;5033150;28;20265;-76
2022/03/27 02:29:56;;;;;;;8.90;5.00;;;;;;;12.07;46.49;100838.22;5013606;28;20671;-76
2022/03/27 02:32:23;;;;;;;6.82;4.68;;;;;;;12.09;46.63;100843.44;5032837;28;20814;-76
2022/03/27 02:34:50;;;;;;;20.75;8.00;;;;;;;12.06;46.62;100851.16;5032173;28;20215;-76
2022/03/27 02:37:17;;;;;;;11.75;5.72;;;;;;;12.00;46.53;100831.13;5033042;28;20212;-76
2022/03/27 02:39:44;;;;;;;6.97;4.13;;;;;;;12.04;46.86;100843.34;5032769;28;20200;-76
2022/03/27 02:42:11;;;;;;;11.35;5.25;;;;;;;11.80;46.69;100827.25;5030754;28;20292;-76
2022/03/27 02:44:38;;;;;;;14.18;5.75;;;;;;;11.83;46.93;100830.78;5032990;28;20260;-76
2022/03/27 02:47:07;;;;;;;8.55;4.57;;;;;;;12.00;46.58;100830.25;5032871;28;20204;-76
2022/03/27 02:49:34;;;;;;;13.02;5.38;;;;;;;11.97;46.59;100850.97;5030494;28;20239;-76
2022/03/27 02:52:00;;;;;;;10.48;6.15;;;;;;;12.03;46.77;100844.19;5032475;28;20278;-76
2022/03/27 02:54:27;;;;;;;9.43;4.68;;;;;;;12.04;46.35;100853.75;5032715;28;20274;-76
2022/03/27 02:56:54;;;;;;;7.68;4.72;;;;;;;12.04;46.65;100838.16;5032538;28;20622;-76
2022/03/27 02:59:22;;;;;;;4.00;3.35;;;;;;;12.01;46.60;100845.88;5032566;28;20204;-76
2022/03/27 03:01:49;;;;;;;6.60;3.80;;;;;;;11.93;46.82;100855.22;5035483;28;20224;-76
2022/03/27 03:04:17;;;;;;;10.25;3.92;;;;;;;11.94;46.90;100851.81;5037839;28;20209;-76
2022/03/27 03:06:44;;;;;;;8.65;5.93;;;;;;;11.75;47.53;100831.44;5035209;28;20201;-76
2022/03/27 03:09:11;;;;;;;14.40;6.05;;;;;;;11.77;47.19;100853.16;5032573;28;20204;-76
2022/03/27 03:11:38;;;;;;;14.02;7.72;;;;;;;11.73;47.34;100851.31;5032007;28;20203;-76
2022/03/27 03:14:05;;;;;;;16.45;6.03;;;;;;;11.68;47.44;100842.50;5032087;28;20200;-76
2022/03/27 03:16:34;;;;;;;7.93;5.55;;;;;;;11.54;47.66;100836.13;5032268;28;20203;-76
2022/03/27 03:19:02;;;;;;;7.57;5.28;;;;;;;11.58;47.93;100862.19;5032592;28;20203;-76
2022/03/27 03:21:30;;;;;;;9.93;5.45;;;;;;;11.55;47.81;100856.06;4997464;28;20207;-76
2022/03/27 03:23:57;;;;;;;9.68;5.43;;;;;;;11.50;47.81;100842.97;4997331;28;20250;-76
2022/03/27 03:26:24;;;;;;;4.50;4.07;;;;;;;11.58;48.06;100854.41;5032217;28;20700;-76
2022/03/27 03:28:51;;;;;;;8.40;5.57;;;;;;;11.47;48.00;100847.22;5031914;28;20258;-76
2022/03/27 03:31:18;;;;;;;8.70;5.55;;;;;;;11.53;47.51;100842.16;5032090;28;20208;-76
2022/03/27 03:33:45;;;;;;;12.10;5.25;;;;;;;11.47;47.92;100842.00;5031866;28;20217;-75
2022/03/27 03:36:12;;;;;;;11.40;5.35;;;;;;;11.58;47.87;100861.31;5031116;28;20541;-76
2022/03/27 03:38:40;;;;;;;7.25;4.53;;;;;;;11.57;48.02;100843.97;5031512;28;20200;-76
2022/03/27 03:41:07;;;;;;;5.85;4.28;;;;;;;11.46;47.55;100822.94;5031021;28;20622;-76
2022/03/27 03:43:34;;;;;;;7.47;5.68;;;;;;;11.30;47.01;100789.69;5031678;28;20668;-75
2022/03/27 03:46:01;;;;;;;8.07;5.38;;;;;;;11.80;47.13;100863.63;5013135;28;20695;-76
2022/03/27 03:48:27;;;;;;;13.63;5.28;;;;;;;11.82;46.71;100852.41;5031703;28;20664;-76
2022/03/27 03:50:54;;;;;;;9.38;5.93;;;;;;;11.71;47.10;100824.41;4996839;28;20680;-76
2022/03/27 03:53:22;;;;;;;8.07;5.57;;;;;;;11.89;46.65;100872.47;5031356;28;20192;-76
2022/03/27 03:55:50;;;;;;;12.50;5.78;;;;;;;11.97;46.39;100867.44;5027292;28;20212;-75
2022/03/27 03:58:17;;;;;;;17.02;6.20;;;;;;;11.77;46.89;100855.75;5030868;28;20196;-76
2022/03/27 04:00:46;;;;;;;24.08;11.27;;;;;;;11.90;46.46;100871.66;5030456;28;20204;-76
2022/03/27 04:03:13;;;;;;;13.60;6.95;;;;;;;11.88;46.83;100883.72;5030897;28;20696;-76
2022/03/27 04:05:40;;;;;;;11.93;6.85;;;;;;;12.00;46.37;100883.13;5028138;28;20222;-75
2022/03/27 04:08:07;;;;;;;8.93;6.50;;;;;;;12.01;46.65;100889.19;4996402;28;20192;-75
2022/03/27 04:10:33;;;;;;;15.85;9.18;;;;;;;11.96;46.48;100886.47;5031400;28;20258;-75
2022/03/27 04:13:01;;;;;;;14.57;7.65;;;;;;;11.86;46.48;100874.13;5031291;28;20196;-75
2022/03/27 04:15:28;;;;;;;11.70;6.10;;;;;;;12.02;46.80;100889.22;5030986;28;20215;-75
2022/03/27 04:17:55;;;;;;;17.27;9.30;;;;;;;12.04;46.07;100897.94;5031259;28;20250;-75
2022/03/27 04:20:22;;;;;;;10.40;5.80;;;;;;;11.99;46.52;100906.44;5030788;28;20208;-75
2022/03/27 04:22:49;;;;;;;14.82;6.50;;;;;;;11.95;46.53;100905.50;5030389;28;20223;-75
2022/03/27 04:25:16;;;;;;;16.13;5.00;;;;;;;12.01;46.22;100918.66;5030153;28;20228;-75
2022/03/27 04:27:44;;;;;;;14.23;5.45;;;;;;;12.01;46.30;100910.88;5030094;28;20236;-75
2022/03/27 04:30:13;;;;;;;12.88;5.43;;;;;;;12.02;46.55;100920.41;5031114;28;20294;-75
2022/03/27 04:32:41;;;;;;;9.60;6.35;;;;;;;12.06;46.32;100924.81;5031229;28;20196;-75
2022/03/27 04:35:10;;;;;;;14.52;6.13;;;;;;;12.07;46.11;100937.00;5030979;28;20258;-75
2022/03/27 04:37:40;;;;;;;9.70;4.85;;;;;;;11.96;46.22;100921.97;5031105;28;20239;-75
2022/03/27 04:40:09;;;;;;;15.82;6.55;;;;;;;12.01;46.53;100936.84;5030602;28;20983;-75
2022/03/27 04:42:36;;;;;;;13.43;5.75;;;;;;;12.06;46.38;100939.53;4994555;28;20204;-75
2022/03/27 04:45:04;;;;;;;13.68;5.25;;;;;;;11.85;46.46;100927.81;4995131;28;20232;-75
2022/03/27 04:47:32;;;;;;;11.77;6.28;;;;;;;12.08;46.11;100928.34;5030225;28;20265;-75
2022/03/27 04:49:59;;;;;;;10.15;4.90;;;;;;;12.22;46.18;100941.66;5030365;28;20597;-75
2022/03/27 04:52:26;;;;;;;12.05;6.25;;;;;;;12.01;46.07;100916.06;5029564;28;20706;-75
2022/03/27 04:54:53;;;;;;;9.90;5.70;;;;;;;12.45;45.97;100952.56;5030650;28;20208;-75
2022/03/27 04:57:21;;;;;;;9.05;5.95;;;;;;;12.65;45.30;100940.84;5030749;28;20700;-75
2022/03/27 04:59:48;;;;;;;13.75;5.95;;;;;;;12.80;45.09;100954.16;4995555;28;20956;-74
2022/03/27 05:02:15;;;;;;;13.70;6.40;;;;;;;12.77;45.05;100954.09;5030753;28;20294;-75
2022/03/27 05:04:43;;;;;;;9.95;6.15;;;;;;;12.83;44.99;100956.81;5030091;28;20291;-75
2022/03/27 05:07:10;;;;;;;7.40;4.65;;;;;;;12.70;44.76;100941.81;5030040;28;20228;-76
2022/03/27 05:09:36;;;;;;;46.22;14.85;;;;;;;12.73;44.92;100957.50;5029938;28;20197;-76
2022/03/27 05:12:04;;;;;;;9.82;5.93;;;;;;;12.58;45.02;100951.97;5030235;28;20196;-76
2022/03/27 05:14:31;;;;;;;10.32;5.70;;;;;;;12.46;45.34;100942.19;5030200;28;20573;-76
2022/03/27 05:16:57;;;;;;;11.52;6.05;;;;;;;12.43;45.43;100956.00;5027332;28;20208;-76
2022/03/27 05:19:24;;;;;;;3.75;3.38;;;;;;;12.33;45.73;100951.47;5029683;28;20688;-75
2022/03/27 05:21:52;;;;;;;16.63;6.85;;;;;;;12.36;45.87;100963.63;5029855;28;20251;-75
2022/03/27 05:24:19;;;;;;;15.50;6.20;;;;;;;12.24;46.63;100935.63;5008830;28;20203;-77
2022/03/27 05:26:46;;;;;;;11.85;6.40;;;;;;;12.38;46.13;100964.53;5030054;28;20220;-75
2022/03/27 05:29:13;;;;;;;11.23;6.40;;;;;;;12.40;45.89;100961.16;5030271;28;20684;-75
2022/03/27 05:31:40;;;;;;;13.75;6.20;;;;;;;12.47;45.76;100958.66;5033834;28;20505;-75
2022/03/27 05:34:07;;;;;;;11.52;5.95;;;;;;;12.59;45.67;100969.34;5033317;28;20204;-76
2022/03/27 05:36:33;;;;;;;12.73;4.80;;;;;;;12.65;45.37;100972.06;5033394;28;20745;-75
2022/03/27 05:39:02;;;;;;;12.10;6.35;;;;;;;12.78;44.70;100979.25;5034083;28;20664;-75
2022/03/27 05:41:28;;;;;;;14.05;6.57;;;;;;;12.45;44.68;100898.78;5033597;28;20223;-75
2022/03/27 05:43:55;;;;;;;8.48;5.47;;;;;;;12.73;44.99;100947.09;4998886;28;20211;-75
2022/03/27 05:46:22;;;;;;;10.00;6.18;;;;;;;12.92;44.68;100975.22;5033516;28;20216;-74
2022/03/27 05:48:49;;;;;;;14.77;7.40;;;;;;;12.91;44.71;100978.69;5015283;28;20653;-75
2022/03/27 05:51:15;;;;;;;15.13;8.05;;;;;;;12.99;44.31;100971.00;5033328;28;20219;-75
2022/03/27 05:53:43;;;;;;;25.83;12.88;;;;;;;13.02;44.63;100961.53;5033384;28;20653;-75
2022/03/27 05:56:11;;;;;;;14.13;7.30;;;;;;;12.67;44.34;100900.09;5032910;28;20207;-74
2022/03/27 05:58:38;;;;;;;19.42;10.10;;;;;;;13.01;44.58;100972.81;5033182;28;20199;-75
2022/03/27 06:01:05;;;;;;;13.75;6.60;;;;;;;13.06;44.53;100973.75;5032291;28;20283;-74
2022/03/27 06:03:32;;;;;;;12.60;6.60;;;;;;;13.06;44.51;100971.16;5032225;28;20282;-75
2022/03/27 06:05:59;;;;;;;9.88;4.45;;;;;;;13.11;44.43;100961.75;5032455;28;20306;-74
2022/03/27 06:08:26;;;;;;;10.63;6.03;;;;;;;13.10;44.56;100965.19;5033037;28;20601;-75
2022/03/27 06:10:53;;;;;;;8.35;5.45;;;;;;;13.18;44.45;100974.03;5033657;28;20204;-76
2022/03/27 06:13:22;;;;;;;9.45;5.43;;;;;;;13.23;44.37;100969.81;5033321;28;20192;-77
2022/03/27 06:15:49;;;;;;;8.55;4.60;;;;;;;13.25;44.25;100964.59;5033342;28;20204;-75
2022/03/27 06:18:16;;;;;;;12.60;5.45;;;;;;;12.90;44.31;100862.38;5033799;28;20219;-78
2022/03/27 06:20:43;;;;;;;19.08;6.22;;;;;;;13.40;44.69;100950.13;5032960;28;20639;-76
2022/03/27 06:23:10;;;;;;;7.63;5.13;;;;;;;13.29;43.89;100904.78;5014311;28;20624;-77
2022/03/27 06:25:38;;;;;;;9.13;4.93;;;;;;;13.52;44.01;100933.81;5012917;28;20224;-77
2022/03/27 06:28:05;;;;;;;7.82;5.28;;;;;;;13.63;43.39;100941.81;5033171;28;20295;-74
2022/03/27 06:30:34;;;;;;;11.70;5.93;;;;;;;13.48;43.64;100911.19;5032344;28;20208;-75
2022/03/27 06:33:02;;;;;;;15.70;7.22;;;;;;;13.74;43.75;100956.78;5031677;28;20291;-75
2022/03/27 06:35:29;;;;;;;4.93;3.67;;;;;;;13.91;43.47;100964.88;5032854;28;20625;-75
2022/03/27 06:37:57;;;;;;;8.77;5.32;;;;;;;14.06;43.44;100967.69;5033081;28;20655;-73
2022/03/27 06:40:23;;;;;;;13.20;5.65;;;;;;;14.13;43.88;100979.97;5033181;28;20235;-75
2022/03/27 06:42:50;;;;;;;18.27;9.27;;;;;;;14.13;43.77;100968.66;5032968;28;20195;-76
2022/03/27 06:45:18;;;;;;;9.55;6.22;;;;;;;14.30;43.96;100982.84;5002433;28;20200;-75
2022/03/27 06:47:48;;;;;;;11.43;5.88;;;;;;;14.43;43.67;100989.13;5032987;28;20769;-75
2022/03/27 06:50:16;;;;;;;11.65;6.60;;;;;;;14.48;43.76;100988.34;5010587;28;20267;-75
2022/03/27 06:52:44;;;;;;;8.07;4.93;;;;;;;14.52;43.59;100968.41;5013058;28;20209;-74
2022/03/27 06:55:12;;;;;;;7.90;5.88;;;;;;;14.51;43.00;100971.84;5019289;28;20208;-74
2022/03/27 06:57:39;;;;;;;13.50;5.97;;;;;;;14.71;42.32;100980.81;5032398;28;20695;-75
2022/03/27 07:03:05;;;;;;;9.93;5.32;;;;;;;14.58;41.45;100963.25;5032510;28;20251;-75
2022/03/27 07:05:32;;;;;;;9.88;5.50;;;;;;;14.83;41.62;101002.75;5032238;28;20208;-74
2022/03/27 07:07:59;;;;;;;9.70;5.82;;;;;;;14.86;41.28;101000.16;5032548;28;20207;-74
2022/03/27 07:10:26;;;;;;;14.80;6.57;;;;;;;15.03;42.22;100989.03;5032259;28;20201;-74
2022/03/27 07:12:54;;;;;;;15.02;7.93;;;;;;;15.09;41.25;100994.34;5031608;28;20219;-74
2022/03/27 07:15:21;;;;;;;10.80;5.40;;;;;;;15.23;40.53;100996.22;5031911;28;20196;-74
2022/03/27 07:17:49;;;;;;;9.93;6.10;;;;;;;15.24;40.91;100986.66;5032446;28;20211;-76
2022/03/27 07:20:20;;;;;;;9.43;4.95;;;;;;;15.33;40.72;100995.47;5032955;28;20200;-75
2022/03/27 07:22:48;;;;;;;12.73;5.68;;;;;;;15.36;40.44;100976.34;5031238;28;20196;-73
2022/03/27 07:25:15;;;;;;;13.23;6.45;;;;;;;15.30;39.80;101000.66;5031978;28;20208;-73
2022/03/27 07:27:42;;;;;;;10.40;7.55;;;;;;;15.32;40.29;100992.84;5030488;28;21170;-76
2022/03/27 07:30:10;;;;;;;12.00;7.82;;;;;;;15.46;39.90;100988.63;5031202;28;20645;-75
2022/03/27 07:32:39;;;;;;;12.30;6.03;;;;;;;15.32;39.89;100964.97;5012579;28;21936;-77
2022/03/27 07:35:07;;;;;;;15.55;7.97;;;;;;;15.32;39.57;100969.31;5031904;28;20287;-78
2022/03/27 07:37:35;;;;;;;16.05;5.15;;;;;;;15.39;40.25;100979.84;5031503;28;20211;-75
2022/03/27 07:40:03;;;;;;;15.10;7.90;;;;;;;15.68;39.78;100984.50;5032011;28;20208;-75
2022/03/27 07:42:32;;;;;;;29.95;8.93;;;;;;;15.79;40.05;100988.97;5031547;28;20228;-71
2022/03/27 07:44:59;;;;;;;10.23;6.05;;;;;;;15.88;39.51;100993.38;5031384;28;20207;-70
2022/03/27 07:47:26;;;;;;;11.90;8.02;;;;;;;15.93;38.70;100970.75;5009335;28;20304;-76
2022/03/27 07:49:53;;;;;;;20.58;8.68;;;;;;;16.09;38.59;100980.47;5024188;28;20204;-75
2022/03/27 07:52:22;;;;;;;8.73;6.18;;;;;;;16.12;38.54;100988.34;5030642;28;20894;-73
2022/03/27 07:54:50;;;;;;;24.50;13.07;;;;;;;16.16;39.02;100974.41;5031044;28;20235;-76
2022/03/27 07:57:17;;;;;;;15.63;7.65;;;;;;;16.30;38.22;101001.53;5031362;28;20211;-77
2022/03/27 07:59:45;;;;;;;18.13;9.40;;;;;;;16.26;38.39;100984.09;5031011;28;20695;-76
2022/03/27 08:02:12;;;;;;;17.33;9.77;;;;;;;16.20;37.71;100978.78;5030904;28;20228;-76
2022/03/27 08:04:38;;;;;;;10.45;5.95;;;;;;;16.02;37.81;100949.88;5031147;28;20207;-77
2022/03/27 08:07:05;;;;;;;14.63;7.60;;;;;;;16.48;37.59;101008.63;5030809;28;20232;-77
2022/03/27 08:09:32;;;;;;;14.77;6.63;;;;;;;16.53;37.43;101011.28;5030685;28;20205;-75
2022/03/27 08:12:00;;;;;;;19.52;10.88;;;;;;;16.79;37.68;101017.56;5031000;28;20223;-74
2022/03/27 08:14:31;;;;;;;11.82;7.25;;;;;;;16.70;37.49;100999.19;5030947;28;20258;-77
2022/03/27 08:16:58;;;;;;;19.33;10.40;;;;;;;16.82;37.43;101001.88;5030130;28;20200;-77
2022/03/27 08:19:25;;;;;;;20.55;11.15;;;;;;;17.04;37.24;101008.06;5030447;28;20253;-77
2022/03/27 08:21:53;;;;;;;18.48;9.60;;;;;;;17.19;36.77;100993.25;5030398;28;20208;-77
2022/03/27 08:24:20;;;;;;;25.10;8.52;;;;;;;17.38;36.80;101009.03;5028183;28;20204;-77
2022/03/27 08:27:00;;;;;;;19.05;9.38;;;;;;;17.64;36.03;101009.97;5029903;28;20320;-76
2022/03/27 08:29:30;;;;;;;14.25;6.75;;;;;;;17.48;35.83;101002.94;5030165;28;20230;-77
2022/03/27 08:31:59;;;;;;;18.15;7.60;;;;;;;17.74;35.67;101009.13;5030360;28;20199;-77
2022/03/27 08:34:26;;;;;;;15.13;8.10;;;;;;;17.72;35.35;101008.25;5030986;28;20292;-78
2022/03/27 08:36:53;;;;;;;15.68;7.85;;;;;;;17.86;35.37;101011.75;5030562;28;20196;-77
2022/03/27 08:39:20;;;;;;;17.08;7.72;;;;;;;17.99;34.89;101008.25;5030902;28;20200;-79
2022/03/27 08:41:48;;;;;;;12.73;6.68;;;;;;;17.77;34.85;101016.97;5030563;28;20723;-79
2022/03/27 08:44:18;;;;;;;17.17;7.85;;;;;;;17.86;35.23;101011.75;5030908;28;20196;-79
2022/03/27 08:46:48;;;;;;;21.48;9.55;;;;;;;18.06;35.10;101004.75;5021782;28;20256;-79
2022/03/27 08:49:29;;;;;;;20.20;8.43;;;;;;;18.19;35.08;101008.25;5030769;28;20195;-80
2022/03/27 08:51:58;;;;;;;18.95;9.93;;;;;;;18.10;34.93;100956.63;5024017;28;20224;-79
2022/03/27 08:54:29;;;;;;;15.93;8.50;;;;;;;18.01;35.60;101019.63;5011029;28;20201;-80
2022/03/27 08:57:08;;;;;;;19.67;8.40;;;;;;;17.99;35.49;101002.13;5014927;28;20211;-79
2022/03/27 08:59:38;;;;;;;18.25;9.20;;;;;;;17.88;36.22;100983.75;5030274;28;20223;-78
2022/03/27 09:02:06;;;;;;;20.65;9.80;;;;;;;17.84;36.39;101013.50;5012026;28;20319;-80
2022/03/27 09:04:36;;;;;;;22.85;11.68;;;;;;;17.86;35.91;101022.25;5014907;28;20593;-77
2022/03/27 09:07:04;;;;;;;24.00;10.18;;;;;;;17.89;35.90;101018.75;5013352;28;20235;-80
2022/03/27 09:09:35;;;;;;;15.63;8.85;;;;;;;18.01;36.01;101017.00;5019331;28;20211;-81
2022/03/27 09:12:03;;;;;;;20.83;9.77;;;;;;;17.97;35.04;101020.50;5031494;28;20204;-79
2022/03/27 09:14:32;;;;;;;15.23;8.00;;;;;;;17.39;35.41;101013.41;5034572;28;20283;-78
2022/03/27 09:17:03;;;;;;;21.13;10.48;;;;;;;17.64;35.96;101015.22;5030378;28;20215;-77
2022/03/27 09:19:39;;;;;;;15.45;8.15;;;;;;;17.75;35.83;101018.75;5034148;28;20246;-79
2022/03/27 09:22:18;;;;;;;51.55;26.08;;;;;;;17.65;35.57;101025.75;5032794;28;20223;-77
2022/03/27 09:24:47;;;;;;;22.95;9.48;;;;;;;17.34;35.56;100953.97;5026326;28;20584;-78
2022/03/27 09:27:15;;;;;;;18.83;9.60;;;;;;;17.99;35.35;101024.00;5032909;28;20224;-78
2022/03/27 09:30:06;;;;;;;21.00;10.30;;;;;;;18.37;35.48;101018.69;5033494;28;20250;-77
2022/03/27 09:32:36;;;;;;;31.13;11.07;;;;;;;18.48;34.44;101010.81;5032666;28;20680;-78
2022/03/27 09:35:06;;;;;;;24.02;9.48;;;;;;;18.58;34.16;101012.59;5007429;28;20291;-78
2022/03/27 09:37:35;;;;;;;20.20;11.02;;;;;;;18.56;34.63;100996.81;5025899;28;20199;-78
2022/03/27 09:40:03;;;;;;;17.35;8.57;;;;;;;18.15;34.59;100989.00;5030690;28;20193;-79
2022/03/27 09:42:30;;;;;;;19.75;9.60;;;;;;;18.32;34.65;101002.97;5031224;28;20197;-81
2022/03/27 09:45:15;;;;;;;16.83;9.10;;;;;;;18.43;34.73;101009.94;5033064;28;20202;-80
2022/03/27 09:47:43;;;;;;;13.95;8.73;;;;;;;18.40;34.31;100994.19;5032704;28;20227;-80
2022/03/27 09:50:31;;;;;;;13.15;8.43;;;;;;;18.42;33.86;100992.44;5033945;28;20258;-82
2022/03/27 09:53:19;;;;;;;19.45;10.77;;;;;;;18.56;33.87;100977.53;5032344;28;20200;-81
2022/03/27 09:55:46;;;;;;;13.50;7.90;;;;;;;18.82;33.37;101015.13;5028222;28;20295;-79
2022/03/27 09:58:15;;;;;;;21.30;10.70;;;;;;;18.77;33.53;100986.22;5032677;28;20283;-77
2022/03/27 10:00:43;;;;;;;18.55;9.35;;;;;;;18.92;34.12;100981.78;5032498;28;20200;-78
2022/03/27 10:03:11;;;;;;;22.85;9.88;;;;;;;19.23;33.18;100997.38;5034402;28;20289;-79
2022/03/27 10:05:39;;;;;;;21.67;9.75;;;;;;;19.52;33.36;100988.47;5033695;28;20236;-77
2022/03/27 10:08:08;;;;;;;26.48;12.02;;;;;;;19.56;32.33;100996.34;5033616;28;20286;-79
2022/03/27 10:10:34;;;;;;;18.20;10.00;;;;;;;18.98;32.72;100911.66;5029287;28;20212;-78
2022/03/27 10:13:01;;;;;;;19.60;9.48;;;;;;;19.46;31.84;100988.53;4996703;28;20246;-78
2022/03/27 10:15:29;;;;;;;18.58;9.93;;;;;;;19.29;32.00;101005.28;5030767;28;20200;-77
2022/03/27 10:17:58;;;;;;;16.88;9.18;;;;;;;19.39;32.51;100989.41;5031986;28;20204;-77
2022/03/27 10:20:28;;;;;;;18.38;10.18;;;;;;;19.49;32.29;100988.50;5031898;28;20668;-76
2022/03/27 10:23:04;;;;;;;15.95;9.48;;;;;;;19.35;32.36;100979.78;5031672;28;20239;-77
2022/03/27 10:25:36;;;;;;;14.45;8.82;;;;;;;19.45;31.82;100965.72;5031617;28;20196;-79
2022/03/27 10:28:03;;;;;;;15.15;9.00;;;;;;;19.88;30.98;100976.78;5031343;28;20228;-77
2022/03/27 10:30:31;;;;;;;13.63;7.03;;;;;;;19.59;30.98;100961.22;5032839;28;20199;-82
2022/03/27 10:33:00;;;;;;;16.33;7.20;;;;;;;19.91;29.82;100975.00;5032771;28;20265;-77
2022/03/27 10:35:46;;;;;;;13.60;7.90;;;;;;;19.89;30.07;100975.91;5030070;28;20204;-76
2022/03/27 10:38:24;;;;;;;14.48;6.97;;;;;;;19.77;29.36;100976.88;5031619;28;20599;-76
2022/03/27 10:41:01;;;;;;;12.75;8.32;;;;;;;19.62;29.38;100948.94;5027844;28;20220;-74
2022/03/27 10:43:36;;;;;;;16.95;8.35;;;;;;;19.82;29.22;100966.31;5032940;28;20603;-77
2022/03/27 10:46:12;;;;;;;10.45;6.53;;;;;;;19.61;30.26;100967.38;5030199;28;20207;-76
2022/03/27 10:48:42;;;;;;;22.17;10.23;;;;;;;19.61;30.57;100959.47;5032145;28;20314;-74
2022/03/27 10:51:09;;;;;;;20.38;9.48;;;;;;;19.75;30.63;100941.81;5028817;28;20279;-75
2022/03/27 10:53:38;;;;;;;16.20;8.27;;;;;;;19.67;30.21;100941.00;5031924;28;20584;-75
2022/03/27 10:56:05;;;;;;;38.88;16.88;;;;;;;19.95;31.38;100957.41;5024748;28;20714;-78
2022/03/27 10:58:39;;;;;;;34.92;16.58;;;;;;;19.80;30.65;100916.31;5026572;28;20196;-78
2022/03/27 11:01:09;;;;;;;17.08;9.40;;;;;;;20.03;30.58;100967.00;5012792;28;20767;-78
2022/03/27 11:04:04;;;;;;;9.48;6.43;;;;;;;19.70;32.05;100954.13;5027660;28;20290;-77
2022/03/27 11:06:32;;;;;;;17.80;8.40;;;;;;;19.71;31.04;100933.06;5031530;28;20282;-78
2022/03/27 11:09:03;;;;;;;18.17;10.15;;;;;;;20.03;31.28;100950.31;5031675;28;20243;-77
2022/03/27 11:12:04;;;;;;;17.20;7.82;;;;;;;20.16;30.18;100947.56;5028931;28;20202;-78
2022/03/27 11:14:56;;;;;;;19.70;10.95;;;;;;;20.15;29.66;100945.84;5030965;28;20280;-77
2022/03/27 11:17:43;;;;;;;14.10;7.72;;;;;;;20.18;30.65;100934.38;5032498;28;20211;-77
2022/03/27 11:20:13;;;;;;;16.00;8.10;;;;;;;20.21;30.28;100943.13;5031030;28;20655;-77
2022/03/27 11:22:47;;;;;;;18.98;9.15;;;;;;;20.18;30.25;100944.91;5033844;28;20660;-77
2022/03/27 11:25:45;;;;;;;15.00;7.97;;;;;;;20.21;29.68;100939.63;5031323;28;20192;-76
2022/03/27 11:28:14;;;;;;;12.35;7.32;;;;;;;20.08;30.81;100907.25;5029491;28;20661;-77
2022/03/27 11:31:19;;;;;;;22.48;10.93;;;;;;;20.47;30.47;100921.78;5029685;28;20205;-76
2022/03/27 11:34:19;;;;;;;16.95;8.63;;;;;;;20.56;30.33;100920.78;4985571;28;20197;-76